Time;durP1;ratioP1;P1;durP2;ratioP2;P2;SDS_P1;SDS_P2;PMS_P1;PMS_P2;Temp;Humidity;BMP_temperature;BMP_pressure;BME280_temperature;BME280_humidity;BME280_pressure;Samples;Min_cycle;Max_cycle;Signal;HPM_P1;HPM_P2
2022/05/05 00:02:15;;;;;;;29.98;15.27;;;10.80;99.90;;;;;;5129295;27;20123;-72
2022/05/05 00:04:41;;;;;;;24.70;13.30;;;10.80;99.90;;;;;;5127858;27;20451;-72
2022/05/05 00:07:06;;;;;;;30.20;15.60;;;10.80;99.90;;;;;;5123670;27;20083;-71
2022/05/05 00:09:32;;;;;;;69.57;14.32;;;10.80;99.90;;;;;;5127965;27;20791;-72
2022/05/05 00:14:42;;;;;;;50.78;13.13;;;10.60;99.90;;;;;;5126339;27;20769;-71
2022/05/05 00:17:09;;;;;;;21.20;11.65;;;10.40;99.90;;;;;;5121621;27;20031;-71
2022/05/05 00:19:38;;;;;;;24.20;12.02;;;10.40;99.90;;;;;;5112417;27;20467;-72
2022/05/05 00:22:05;;;;;;;21.20;12.40;;;10.40;99.90;;;;;;5125752;27;20028;-72
2022/05/05 00:24:31;;;;;;;24.25;12.88;;;10.30;99.90;;;;;;5120193;27;20038;-72
2022/05/05 00:26:57;;;;;;;23.40;13.48;;;10.30;99.90;;;;;;5129956;27;20785;-72
2022/05/05 00:29:23;;;;;;;26.70;14.68;;;10.20;99.90;;;;;;5128735;27;20023;-72
2022/05/05 00:31:49;;;;;;;29.80;15.43;;;10.30;99.90;;;;;;5117310;27;20130;-72
2022/05/05 00:34:16;;;;;;;25.85;14.25;;;10.30;99.90;;;;;;5118501;27;20035;-71
2022/05/05 00:36:42;;;;;;;30.15;15.02;;;10.30;99.90;;;;;;5115664;27;20044;-71
2022/05/05 00:39:11;;;;;;;283.77;16.52;;;10.30;99.90;;;;;;5114059;27;20543;-72
2022/05/05 00:41:39;;;;;;;125.82;12.40;;;10.30;99.90;;;;;;5122834;27;20023;-71
2022/05/05 00:44:06;;;;;;;22.50;11.95;;;10.20;99.90;;;;;;5112845;27;20031;-72
2022/05/05 00:46:32;;;;;;;25.98;12.98;;;10.00;99.90;;;;;;5127678;27;20704;-72
2022/05/05 00:48:59;;;;;;;26.60;13.95;;;9.90;99.90;;;;;;5104831;27;20088;-72
2022/05/05 00:51:25;;;;;;;23.15;12.98;;;9.90;99.90;;;;;;5113542;27;20058;-72
2022/05/05 00:53:52;;;;;;;24.27;13.52;;;9.90;99.90;;;;;;5104981;27;20077;-71
2022/05/05 00:56:18;;;;;;;25.73;14.25;;;9.90;99.90;;;;;;5123790;27;20479;-71
2022/05/05 00:58:45;;;;;;;24.95;13.88;;;9.80;99.90;;;;;;5124473;27;20031;-72
2022/05/05 01:01:14;;;;;;;25.15;13.77;;;9.80;99.90;;;;;;5096041;28;20080;-71
2022/05/05 01:03:40;;;;;;;23.67;13.13;;;9.80;99.90;;;;;;5129179;27;20023;-72
2022/05/05 01:06:06;;;;;;;26.98;14.50;;;9.70;99.90;;;;;;5091940;28;20052;-72
2022/05/05 01:08:36;;;;;;;27.63;14.50;;;9.70;99.90;;;;;;5122628;28;20403;-71
2022/05/05 01:11:02;;;;;;;27.17;14.00;;;9.70;99.90;;;;;;5125956;28;20101;-72
2022/05/05 01:13:30;;;;;;;72.65;12.88;;;9.60;99.90;;;;;;5100954;28;20479;-72
2022/05/05 01:15:56;;;;;;;82.07;13.40;;;9.50;99.90;;;;;;5125648;28;20155;-73
2022/05/05 01:18:25;;;;;;;23.02;12.18;;;9.50;99.90;;;;;;5111973;28;20081;-70
2022/05/05 01:20:54;;;;;;;19.75;11.10;;;9.50;99.90;;;;;;5123980;28;20020;-72
2022/05/05 01:23:20;;;;;;;22.73;13.02;;;9.40;99.90;;;;;;5115729;28;20028;-72
2022/05/05 01:28:33;;;;;;;112.28;13.80;;;9.40;99.90;;;;;;5125904;28;20110;-72
2022/05/05 01:30:59;;;;;;;80.85;13.90;;;9.40;99.90;;;;;;5127487;28;20030;-72
2022/05/05 01:33:27;;;;;;;134.70;13.93;;;9.40;99.90;;;;;;5114276;28;20047;-71
2022/05/05 01:35:58;;;;;;;52.05;12.35;;;9.40;99.90;;;;;;5106988;28;20042;-72
2022/05/05 01:38:40;;;;;;;27.30;13.98;;;9.50;99.90;;;;;;5119912;28;20068;-73
2022/05/05 01:41:08;;;;;;;24.70;11.35;;;9.40;99.90;;;;;;5118515;28;20081;-72
2022/05/05 01:43:36;;;;;;;20.20;11.18;;;9.40;99.90;;;;;;5111289;28;20039;-73
2022/05/05 01:46:02;;;;;;;21.38;11.20;;;9.40;99.90;;;;;;5121845;28;20035;-73
2022/05/05 01:48:28;;;;;;;20.55;12.20;;;9.30;99.90;;;;;;5129083;27;20027;-72
2022/05/05 01:50:54;;;;;;;27.02;13.18;;;9.40;99.90;;;;;;5132730;27;20046;-72
2022/05/05 01:53:20;;;;;;;25.95;13.65;;;9.40;99.90;;;;;;5131025;27;20028;-72
2022/05/05 01:55:45;;;;;;;27.35;14.88;;;9.40;99.90;;;;;;5126549;27;20121;-72
2022/05/05 01:58:11;;;;;;;327.15;19.45;;;9.50;99.90;;;;;;5119684;27;20024;-72
2022/05/05 02:00:37;;;;;;;56.58;10.77;;;9.50;99.90;;;;;;5119182;27;20032;-72
2022/05/05 02:03:04;;;;;;;54.20;10.35;;;9.30;99.90;;;;;;5116484;27;20057;-71
2022/05/05 02:05:29;;;;;;;19.58;11.20;;;9.30;99.90;;;;;;5115456;27;20043;-72
2022/05/05 02:07:55;;;;;;;21.02;11.35;;;9.20;99.90;;;;;;5118192;27;20516;-72
2022/05/05 02:10:21;;;;;;;22.27;12.32;;;9.10;99.90;;;;;;5120398;27;20699;-72
2022/05/05 02:12:48;;;;;;;21.92;11.13;;;9.10;99.90;;;;;;5111936;27;20580;-72
2022/05/05 02:15:14;;;;;;;21.50;12.20;;;9.00;99.90;;;;;;5129147;27;20234;-71
2022/05/05 02:17:42;;;;;;;22.75;12.18;;;9.00;99.90;;;;;;5128347;27;20039;-72
2022/05/05 02:20:13;;;;;;;24.40;13.65;;;9.00;99.90;;;;;;5128620;27;20038;-72
2022/05/05 02:22:41;;;;;;;27.45;14.20;;;9.00;99.90;;;;;;5129176;27;20039;-72
2022/05/05 02:25:08;;;;;;;28.80;15.10;;;9.00;99.90;;;;;;5126455;27;20042;-72
2022/05/05 02:27:48;;;;;;;25.63;13.52;;;9.10;99.90;;;;;;5127282;27;20052;-72
2022/05/05 02:30:15;;;;;;;46.25;12.30;;;9.10;99.90;;;;;;5117857;27;20441;-72
2022/05/05 02:32:42;;;;;;;22.27;10.88;;;9.10;99.90;;;;;;5117395;27;20030;-70
2022/05/05 02:35:07;;;;;;;21.30;11.85;;;9.10;99.90;;;;;;5103087;27;20134;-72
2022/05/05 02:40:17;;;;;;;28.75;13.63;;;9.00;99.90;;;;;;5118518;27;20083;-72
2022/05/05 02:42:43;;;;;;;41.97;13.52;;;8.90;99.90;;;;;;5128983;27;20031;-72
2022/05/05 02:45:09;;;;;;;196.40;13.35;;;8.90;99.90;;;;;;5128768;27;20146;-72
2022/05/05 02:47:34;;;;;;;119.10;12.40;;;8.80;99.90;;;;;;5113165;27;20031;-71
2022/05/05 02:50:00;;;;;;;37.42;11.85;;;8.80;99.90;;;;;;5118097;27;20031;-72
2022/05/05 02:52:26;;;;;;;23.67;12.50;;;8.80;99.90;;;;;;5127384;27;20908;-70
2022/05/05 02:54:51;;;;;;;55.55;12.02;;;8.70;99.90;;;;;;5122518;27;20053;-72
2022/05/05 02:57:18;;;;;;;164.48;13.07;;;8.70;99.90;;;;;;5111825;27;20027;-72
2022/05/05 02:59:44;;;;;;;363.27;16.20;;;8.70;99.90;;;;;;5126352;27;20027;-78
2022/05/05 03:02:10;;;;;;;66.65;11.68;;;8.70;99.90;;;;;;5111541;27;20027;-70
2022/05/05 03:04:36;;;;;;;105.10;12.57;;;8.70;99.90;;;;;;5129556;27;20070;-69
2022/05/05 03:07:01;;;;;;;34.78;12.45;;;8.70;99.90;;;;;;5127150;27;20533;-70
2022/05/05 03:09:27;;;;;;;26.52;11.98;;;8.80;99.90;;;;;;5132775;27;20023;-70
2022/05/05 03:11:53;;;;;;;27.40;12.10;;;8.70;99.90;;;;;;5129505;27;20035;-71
2022/05/05 03:14:18;;;;;;;35.70;11.80;;;8.60;99.90;;;;;;5132695;27;20090;-71
2022/05/05 03:16:44;;;;;;;63.47;10.32;;;8.50;99.90;;;;;;5123172;27;20043;-70
2022/05/05 03:19:10;;;;;;;101.18;11.60;;;8.50;99.90;;;;;;5093819;28;20034;-71
2022/05/05 03:21:37;;;;;;;31.63;10.57;;;8.50;99.90;;;;;;5122687;27;20023;-70
2022/05/05 03:24:03;;;;;;;19.15;10.77;;;8.50;99.90;;;;;;5132811;27;20039;-70
2022/05/05 03:26:29;;;;;;;17.38;9.70;;;8.50;99.90;;;;;;5130538;27;20039;-70
2022/05/05 03:28:55;;;;;;;18.10;9.88;;;8.40;99.90;;;;;;5117561;27;20039;-70
2022/05/05 03:31:21;;;;;;;27.83;11.00;;;8.30;99.90;;;;;;5118292;27;20026;-70
2022/05/05 03:33:47;;;;;;;38.70;11.45;;;8.30;99.90;;;;;;5121020;27;20023;-70
2022/05/05 03:36:13;;;;;;;23.75;10.23;;;8.30;99.90;;;;;;5099266;27;20047;-69
2022/05/05 03:38:38;;;;;;;222.95;12.80;;;8.30;99.90;;;;;;5124719;27;20136;-71
2022/05/05 03:41:05;;;;;;;46.03;10.52;;;8.10;99.90;;;;;;5111665;28;20035;-70
2022/05/05 03:43:31;;;;;;;32.92;9.57;;;8.10;99.90;;;;;;5092791;28;20379;-70
2022/05/05 03:45:57;;;;;;;45.95;11.65;;;8.10;99.90;;;;;;5111108;28;20036;-70
2022/05/05 03:48:23;;;;;;;76.95;10.75;;;8.10;99.90;;;;;;5127557;27;20440;-70
2022/05/05 03:50:48;;;;;;;47.13;10.65;;;8.10;99.90;;;;;;5130106;27;20035;-71
2022/05/05 03:53:14;;;;;;;26.67;10.82;;;8.10;99.90;;;;;;5119679;27;20039;-69
2022/05/05 03:55:40;;;;;;;53.78;11.00;;;8.10;99.90;;;;;;5128652;27;20443;-69
2022/05/05 03:58:06;;;;;;;56.25;10.55;;;8.10;99.90;;;;;;5131568;27;20035;-69
2022/05/05 04:00:31;;;;;;;28.08;11.73;;;8.10;99.90;;;;;;5131761;27;20066;-69
2022/05/05 04:05:41;;;;;;;45.67;10.45;;;8.10;99.90;;;;;;5119781;27;20076;-70
2022/05/05 04:08:07;;;;;;;138.18;11.43;;;8.00;99.90;;;;;;5130295;27;20019;-70
2022/05/05 04:10:33;;;;;;;197.52;12.02;;;8.00;99.90;;;;;;5127832;27;20027;-70
2022/05/05 04:12:58;;;;;;;119.05;12.18;;;8.00;99.90;;;;;;5111287;27;20033;-70
2022/05/05 04:15:24;;;;;;;42.95;9.88;;;8.00;99.90;;;;;;5131515;27;20435;-70
2022/05/05 04:17:51;;;;;;;20.30;11.30;;;8.00;99.90;;;;;;5130082;27;20019;-70
2022/05/05 04:20:17;;;;;;;108.72;11.07;;;8.00;99.90;;;;;;5130169;27;20031;-71
2022/05/05 04:22:43;;;;;;;23.15;9.70;;;7.90;99.90;;;;;;5129131;27;20027;-70
2022/05/05 04:25:09;;;;;;;23.33;10.30;;;8.00;99.90;;;;;;5128397;27;20116;-70
2022/05/05 04:27:39;;;;;;;235.95;12.27;;;7.90;99.90;;;;;;5129108;27;20051;-69
2022/05/05 04:30:07;;;;;;;180.82;10.80;;;8.00;99.90;;;;;;5129832;27;20098;-71
2022/05/05 04:32:33;;;;;;;239.75;12.18;;;7.90;99.90;;;;;;5130131;27;20475;-68
2022/05/05 04:34:59;;;;;;;100.75;10.13;;;7.80;99.90;;;;;;5115052;27;20046;-68
2022/05/05 04:37:25;;;;;;;36.38;9.38;;;7.80;99.90;;;;;;5112254;27;20097;-71
2022/05/05 04:39:50;;;;;;;16.50;9.65;;;7.80;99.90;;;;;;5124901;27;20463;-71
2022/05/05 04:42:16;;;;;;;17.42;9.13;;;7.80;99.90;;;;;;5131060;27;20044;-70
2022/05/05 04:44:42;;;;;;;22.85;9.30;;;7.70;99.90;;;;;;5124731;27;20023;-70
2022/05/05 04:47:08;;;;;;;54.90;10.43;;;7.70;99.90;;;;;;5113947;27;20071;-70
2022/05/05 04:49:33;;;;;;;70.68;8.02;;;7.90;99.90;;;;;;5121438;27;20023;-70
2022/05/05 04:51:59;;;;;;;30.73;7.97;;;7.90;99.90;;;;;;5128196;27;20459;-70
2022/05/05 04:54:25;;;;;;;40.45;9.15;;;8.00;99.90;;;;;;5123779;27;20426;-69
2022/05/05 04:56:50;;;;;;;21.73;7.68;;;8.00;99.90;;;;;;5109841;28;20038;-70
2022/05/05 04:59:16;;;;;;;78.65;9.30;;;8.00;99.90;;;;;;5109991;28;20028;-70
2022/05/05 05:01:42;;;;;;;22.10;8.10;;;8.00;99.90;;;;;;5111507;27;20034;-69
2022/05/05 05:04:08;;;;;;;151.07;10.23;;;8.00;99.90;;;;;;5130662;27;20041;-70
2022/05/05 05:06:34;;;;;;;174.90;10.35;;;8.10;99.90;;;;;;5129564;27;20043;-70
2022/05/05 05:09:00;;;;;;;81.43;9.02;;;8.10;99.90;;;;;;5111624;28;20467;-69
2022/05/05 05:11:25;;;;;;;137.30;10.13;;;8.10;99.90;;;;;;5130750;28;20027;-70
2022/05/05 05:13:51;;;;;;;107.20;9.05;;;8.20;99.90;;;;;;5129889;28;20451;-70
2022/05/05 05:16:17;;;;;;;97.30;9.52;;;8.30;99.90;;;;;;5130057;28;20080;-70
2022/05/05 05:18:43;;;;;;;31.25;8.75;;;8.40;99.90;;;;;;5111256;28;20035;-70
2022/05/05 05:21:08;;;;;;;79.07;9.18;;;8.40;99.90;;;;;;5130365;27;20027;-70
2022/05/05 05:23:35;;;;;;;16.88;8.10;;;8.60;99.90;;;;;;5134423;27;20031;-70
2022/05/05 05:26:01;;;;;;;137.40;10.30;;;8.60;99.90;;;;;;5134327;27;20107;-70
2022/05/05 05:28:27;;;;;;;25.17;8.60;;;8.80;99.90;;;;;;5133826;27;20060;-70
2022/05/05 05:30:52;;;;;;;17.42;9.88;;;8.90;99.90;;;;;;5133682;27;20467;-71
2022/05/05 05:33:18;;;;;;;16.80;9.82;;;9.00;99.90;;;;;;5115307;27;20543;-70
2022/05/05 05:35:44;;;;;;;27.40;11.20;;;9.00;99.90;;;;;;5133657;27;20071;-70
2022/05/05 05:38:11;;;;;;;22.50;11.70;;;9.00;99.90;;;;;;5134631;27;20025;-70
2022/05/05 05:40:37;;;;;;;54.45;13.20;;;9.00;99.90;;;;;;5134178;27;20443;-70
2022/05/05 05:43:03;;;;;;;33.47;13.23;;;9.10;99.90;;;;;;5114159;27;20168;-70
2022/05/05 05:45:29;;;;;;;50.92;13.43;;;9.30;99.90;;;;;;5134692;27;20564;-70
2022/05/05 05:47:55;;;;;;;28.67;13.02;;;9.40;99.90;;;;;;5132667;27;20039;-69
2022/05/05 05:50:21;;;;;;;24.20;12.70;;;9.50;99.90;;;;;;5134392;27;20027;-70
2022/05/05 05:52:47;;;;;;;27.88;12.10;;;9.60;99.90;;;;;;5133623;27;20023;-70
2022/05/05 05:55:14;;;;;;;23.13;12.63;;;9.70;99.90;;;;;;5134290;27;20027;-70
2022/05/05 05:57:40;;;;;;;35.08;13.40;;;9.60;99.90;;;;;;5132273;27;20027;-69
2022/05/05 06:00:07;;;;;;;72.60;13.25;;;9.70;99.90;;;;;;5134466;27;20023;-70
2022/05/05 06:05:17;;;;;;;45.80;13.00;;;9.60;99.90;;;;;;5131924;27;20055;-69
2022/05/05 06:07:44;;;;;;;29.15;13.55;;;9.60;99.90;;;;;;5133309;27;20019;-69
2022/05/05 06:10:10;;;;;;;26.88;14.02;;;9.60;99.90;;;;;;5129323;27;20046;-70
2022/05/05 06:12:35;;;;;;;25.42;13.95;;;9.60;99.90;;;;;;5133692;27;20027;-69
2022/05/05 06:15:01;;;;;;;27.40;14.52;;;9.80;99.90;;;;;;5132928;27;20051;-69
2022/05/05 06:17:27;;;;;;;25.00;14.43;;;9.80;99.90;;;;;;5132344;27;20451;-71
2022/05/05 06:19:52;;;;;;;25.55;13.95;;;9.90;99.90;;;;;;5133326;27;20114;-68
2022/05/05 06:22:18;;;;;;;30.35;16.42;;;10.00;99.90;;;;;;5132281;27;20100;-70
2022/05/05 06:24:44;;;;;;;30.15;16.42;;;10.00;99.90;;;;;;5132787;27;20089;-69
2022/05/05 06:27:10;;;;;;;32.50;17.40;;;10.00;99.90;;;;;;5133721;27;20031;-69
2022/05/05 06:29:35;;;;;;;29.98;16.70;;;10.10;99.90;;;;;;5133828;27;20076;-70
2022/05/05 06:32:01;;;;;;;30.40;16.60;;;10.20;99.90;;;;;;5133236;27;20023;-69
2022/05/05 06:34:26;;;;;;;30.63;16.27;;;10.30;99.90;;;;;;5123383;27;20069;-70
2022/05/05 06:36:52;;;;;;;30.77;15.80;;;10.30;99.90;;;;;;5130600;27;20032;-70
2022/05/05 06:39:18;;;;;;;27.35;15.57;;;10.40;99.90;;;;;;5133217;27;20227;-70
2022/05/05 06:41:43;;;;;;;26.63;14.57;;;10.40;99.90;;;;;;5132847;27;20035;-69
2022/05/05 06:44:10;;;;;;;26.88;14.18;;;10.40;99.90;;;;;;5132832;27;20019;-69
2022/05/05 06:46:36;;;;;;;26.92;15.25;;;10.40;99.90;;;;;;5133159;27;20039;-70
2022/05/05 06:49:02;;;;;;;30.33;15.48;;;10.50;99.90;;;;;;5130617;27;20026;-70
2022/05/05 06:51:28;;;;;;;24.80;14.80;;;10.60;99.90;;;;;;5132362;27;20034;-70
2022/05/05 06:53:53;;;;;;;28.67;14.45;;;10.60;99.90;;;;;;5132666;27;20027;-70
2022/05/05 06:56:20;;;;;;;28.42;14.82;;;10.70;99.90;;;;;;5133193;27;20035;-70
2022/05/05 06:58:45;;;;;;;29.05;15.63;;;10.70;99.90;;;;;;5122550;27;20111;-70
2022/05/05 07:06:47;;;;;;;32.53;17.98;;;10.80;99.90;;;;;;5131916;27;20042;-69
2022/05/05 07:12:08;;;;;;;33.65;18.30;;;10.90;99.90;;;;;;5100571;28;20554;-70
2022/05/05 07:14:33;;;;;;;37.55;19.98;;;11.10;99.90;;;;;;5093672;28;20042;-70
2022/05/05 07:16:59;;;;;;;34.22;18.08;;;11.10;99.90;;;;;;5111567;28;20083;-69
2022/05/05 07:19:25;;;;;;;40.03;19.52;;;11.20;99.90;;;;;;5112033;28;20034;-70
2022/05/05 07:21:50;;;;;;;38.15;19.02;;;11.30;99.90;;;;;;5111384;28;20024;-70
2022/05/05 07:24:16;;;;;;;38.85;19.92;;;11.30;99.90;;;;;;5131409;27;20019;-70
2022/05/05 07:26:42;;;;;;;37.55;20.15;;;11.40;99.90;;;;;;5111538;27;20038;-71
2022/05/05 07:29:08;;;;;;;35.75;18.75;;;11.50;99.90;;;;;;5113631;27;20023;-69
2022/05/05 07:31:34;;;;;;;40.70;20.73;;;11.60;99.90;;;;;;5116803;27;20051;-70
2022/05/05 07:34:00;;;;;;;38.78;20.60;;;11.70;99.90;;;;;;5110889;28;20443;-70
2022/05/05 07:36:26;;;;;;;37.08;20.15;;;11.80;99.90;;;;;;5111832;28;20105;-71
2022/05/05 07:38:51;;;;;;;38.80;21.13;;;11.80;99.90;;;;;;5118795;27;20460;-70
2022/05/05 07:41:17;;;;;;;42.25;21.77;;;11.90;99.90;;;;;;5129178;27;20030;-70
2022/05/05 07:43:43;;;;;;;38.40;20.77;;;12.00;99.90;;;;;;5131828;27;20537;-69
2022/05/05 07:46:08;;;;;;;42.55;22.20;;;12.10;99.90;;;;;;5129233;27;20039;-70
2022/05/05 07:48:34;;;;;;;41.42;21.75;;;12.20;99.90;;;;;;5121051;27;20041;-70
2022/05/05 07:51:00;;;;;;;42.70;22.95;;;12.20;99.90;;;;;;5131243;27;20034;-69
2022/05/05 07:53:26;;;;;;;42.67;21.83;;;12.30;99.90;;;;;;5132015;27;20475;-71
2022/05/05 07:55:51;;;;;;;39.22;21.73;;;12.30;99.90;;;;;;5130984;27;20470;-70
2022/05/05 07:58:17;;;;;;;44.75;23.38;;;12.40;99.90;;;;;;5131673;27;20031;-70
2022/05/05 08:00:43;;;;;;;47.03;24.63;;;12.50;99.90;;;;;;5131933;27;20440;-70
2022/05/05 08:03:08;;;;;;;45.47;23.55;;;12.70;99.90;;;;;;5129513;27;20399;-70
2022/05/05 08:05:34;;;;;;;46.80;24.77;;;12.70;99.90;;;;;;5131416;27;20440;-70
2022/05/05 08:08:00;;;;;;;53.72;26.38;;;12.90;99.90;;;;;;5130930;27;20515;-70
2022/05/05 08:10:28;;;;;;;53.17;26.77;;;13.00;99.90;;;;;;5128828;27;20560;-69
2022/05/05 08:12:54;;;;;;;53.13;26.58;;;13.20;99.90;;;;;;5130833;27;20050;-70
2022/05/05 08:15:20;;;;;;;49.38;23.98;;;13.60;99.90;;;;;;5128781;27;20451;-70
2022/05/05 08:17:47;;;;;;;52.38;26.92;;;14.00;99.90;;;;;;5125889;27;20031;-69
2022/05/05 08:20:15;;;;;;;42.85;23.48;;;14.20;99.90;;;;;;5130703;27;20111;-70
2022/05/05 08:22:41;;;;;;;68.90;32.40;;;14.20;99.90;;;;;;5126979;27;20042;-70
2022/05/05 08:30:38;;;;;;;56.97;27.75;;;14.80;99.90;;;;;;5121825;27;20043;-70
2022/05/05 08:33:04;;;;;;;59.58;29.13;;;15.00;99.90;;;;;;5130275;27;20534;-70
2022/05/05 08:35:30;;;;;;;54.75;30.13;;;15.10;99.90;;;;;;5125760;27;20031;-70
2022/05/05 08:37:56;;;;;;;57.22;29.88;;;15.10;99.90;;;;;;5115647;27;20080;-71
2022/05/05 08:40:24;;;;;;;55.50;27.98;;;15.10;99.90;;;;;;5118912;27;20058;-70
2022/05/05 08:42:50;;;;;;;54.20;28.48;;;15.20;99.90;;;;;;5104486;27;20417;-71
2022/05/05 08:45:16;;;;;;;55.47;28.40;;;15.20;99.90;;;;;;5126060;27;20031;-69
2022/05/05 08:47:42;;;;;;;51.42;28.60;;;15.30;99.90;;;;;;5118477;27;20049;-70
2022/05/05 08:50:10;;;;;;;60.30;29.55;;;15.20;99.90;;;;;;5110729;27;20023;-71
2022/05/05 08:52:43;;;;;;;55.65;27.90;;;15.40;99.90;;;;;;5110712;28;20065;-71
2022/05/05 08:55:13;;;;;;;52.13;26.50;;;15.60;99.90;;;;;;5122353;27;20268;-70
2022/05/05 08:57:39;;;;;;;;;;;15.80;99.90;;;;;;5130939;27;20046;-70
2022/05/05 09:00:05;;;;;;;45.70;24.92;;;15.60;99.90;;;;;;5126604;27;19903;-71
2022/05/05 09:02:31;;;;;;;62.40;30.80;;;15.60;99.90;;;;;;5130746;27;20511;-71
2022/05/05 09:04:57;;;;;;;51.17;28.23;;;15.70;99.90;;;;;;5128929;27;20051;-71
2022/05/05 09:07:48;;;;;;;49.10;27.27;;;15.60;99.90;;;;;;5128937;27;20047;-71
2022/05/05 09:10:15;;;;;;;53.60;26.02;;;15.30;99.90;;;;;;5128365;28;20069;-70
2022/05/05 09:12:41;;;;;;;47.25;25.90;;;15.10;99.90;;;;;;5129865;28;20502;-71
2022/05/05 09:15:10;;;;;;;49.42;26.02;;;15.00;99.90;;;;;;5129793;28;20051;-71
2022/05/05 09:17:36;;;;;;;52.55;27.63;;;14.80;99.90;;;;;;5091922;28;20024;-70
2022/05/05 09:20:06;;;;;;;48.50;26.00;;;14.80;99.90;;;;;;5109382;28;20072;-70
2022/05/05 09:22:32;;;;;;;50.38;26.95;;;15.00;99.90;;;;;;5092374;28;20051;-70
2022/05/05 09:24:58;;;;;;;46.88;24.95;;;15.00;99.90;;;;;;5109204;28;20132;-70
2022/05/05 09:27:29;;;;;;;47.30;25.60;;;14.90;99.90;;;;;;5127817;28;20033;-70
2022/05/05 09:30:15;;;;;;;44.63;25.15;;;14.90;99.90;;;;;;5111323;28;20038;-69
2022/05/05 09:32:45;;;;;;;50.90;24.02;;;14.90;99.90;;;;;;5129847;28;20483;-70
2022/05/05 09:35:13;;;;;;;48.50;24.08;;;14.80;99.90;;;;;;5116317;28;20080;-71
2022/05/05 09:37:44;;;;;;;45.70;24.52;;;15.00;99.90;;;;;;5110008;28;20043;-71
2022/05/05 09:40:13;;;;;;;40.60;22.83;;;15.10;99.90;;;;;;5109030;28;20027;-71
2022/05/05 09:42:44;;;;;;;39.17;22.33;;;15.30;99.90;;;;;;5128905;28;20482;-70
2022/05/05 09:45:30;;;;;;;40.17;23.23;;;15.60;99.90;;;;;;5110231;28;20083;-70
2022/05/05 09:48:01;;;;;;;44.45;21.70;;;15.80;99.90;;;;;;5129534;28;20084;-71
2022/05/05 09:50:29;;;;;;;41.67;22.35;;;15.90;99.90;;;;;;5129165;28;20080;-71
2022/05/05 09:58:39;;;;;;;42.83;24.13;;;15.90;99.90;;;;;;5129653;28;20073;-71
2022/05/05 10:01:10;;;;;;;44.88;23.20;;;15.80;99.90;;;;;;5120626;28;20028;-70
2022/05/05 10:04:05;;;;;;;39.08;22.20;;;15.80;99.90;;;;;;5109896;28;20027;-70
2022/05/05 10:06:37;;;;;;;38.95;22.73;;;16.00;99.90;;;;;;5130119;28;20085;-71
2022/05/05 10:09:05;;;;;;;41.92;22.02;;;16.00;99.90;;;;;;5129555;27;20035;-70
2022/05/05 10:11:32;;;;;;;41.17;22.65;;;15.60;99.90;;;;;;5134060;27;20023;-70
2022/05/05 10:14:00;;;;;;;45.60;24.30;;;15.50;99.90;;;;;;5133187;27;20019;-71
2022/05/05 10:16:27;;;;;;;46.45;24.92;;;15.60;99.90;;;;;;5127661;27;20028;-71
2022/05/05 10:18:52;;;;;;;43.17;24.73;;;15.50;99.90;;;;;;5113006;28;20023;-69
2022/05/05 10:21:36;;;;;;;49.97;24.63;;;15.50;99.90;;;;;;5112875;28;20042;-71
2022/05/05 10:24:10;;;;;;;45.70;24.83;;;15.50;99.90;;;;;;5117175;27;20467;-71
2022/05/05 10:26:37;;;;;;;45.40;25.40;;;15.40;99.90;;;;;;5133701;27;20027;-70
2022/05/05 10:29:03;;;;;;;46.22;24.23;;;15.30;99.90;;;;;;5132834;27;20027;-70
2022/05/05 10:31:37;;;;;;;43.80;24.48;;;15.50;99.90;;;;;;5103216;28;20085;-70
2022/05/05 10:34:07;;;;;;;47.53;24.80;;;15.50;99.90;;;;;;5093881;28;20031;-71
2022/05/05 10:36:34;;;;;;;47.13;23.98;;;15.60;99.90;;;;;;5112973;28;20028;-71
2022/05/05 10:39:19;;;;;;;46.85;25.80;;;15.50;99.90;;;;;;5119039;27;20161;-69
2022/05/05 10:41:45;;;;;;;46.97;25.83;;;15.60;99.90;;;;;;5131539;27;20035;-70
2022/05/05 10:44:19;;;;;;;46.45;25.92;;;15.60;99.90;;;;;;5112034;28;20032;-70
2022/05/05 10:47:05;;;;;;;41.72;23.23;;;15.60;99.90;;;;;;5112709;28;20524;-71
2022/05/05 10:49:30;;;;;;;45.35;23.52;;;15.60;99.90;;;;;;5112452;28;20032;-70
2022/05/05 10:52:08;;;;;;;42.83;23.80;;;15.60;99.90;;;;;;5112252;28;20016;-70
2022/05/05 10:54:35;;;;;;;44.60;23.90;;;15.60;99.90;;;;;;5126509;27;20050;-71
2022/05/05 10:57:25;;;;;;;41.20;22.98;;;15.70;99.90;;;;;;5121812;27;20073;-70
2022/05/05 11:00:14;;;;;;;41.47;23.20;;;15.70;99.90;;;;;;5117146;27;20153;-70
2022/05/05 11:02:58;;;;;;;43.47;23.27;;;15.80;99.90;;;;;;5131788;27;20035;-71
2022/05/05 11:05:33;;;;;;;43.33;22.23;;;16.00;99.90;;;;;;5118750;27;20050;-70
2022/05/05 11:08:17;;;;;;;43.08;23.73;;;16.20;99.90;;;;;;5131826;27;20394;-70
2022/05/05 11:10:47;;;;;;;40.83;22.90;;;16.40;99.90;;;;;;5114422;27;20031;-70
2022/05/05 11:13:35;;;;;;;41.10;22.30;;;16.40;99.90;;;;;;5131870;27;20101;-71
2022/05/05 11:22:17;;;;;;;39.33;22.45;;;16.10;99.90;;;;;;5131662;27;20094;-70
2022/05/05 11:24:47;;;;;;;42.33;23.13;;;16.10;99.90;;;;;;5131524;27;20080;-70
2022/05/05 11:27:20;;;;;;;39.65;22.30;;;16.00;99.90;;;;;;5130177;27;20042;-70
2022/05/05 11:29:57;;;;;;;43.97;24.40;;;16.10;99.90;;;;;;5129409;27;20098;-71
2022/05/05 11:32:33;;;;;;;45.63;24.25;;;16.10;99.90;;;;;;5118963;27;20028;-71
2022/05/05 11:34:59;;;;;;;36.63;21.80;;;15.90;99.90;;;;;;5112736;27;20101;-70
2022/05/05 11:37:30;;;;;;;39.85;21.58;;;16.00;99.90;;;;;;5131508;27;20035;-70
2022/05/05 11:39:56;;;;;;;49.80;23.05;;;16.00;99.90;;;;;;5132314;27;20054;-71
2022/05/05 11:42:22;;;;;;;42.50;22.17;;;16.00;99.90;;;;;;5131661;27;20023;-71
2022/05/05 11:44:48;;;;;;;35.85;20.95;;;15.80;99.90;;;;;;5132272;27;20019;-71
2022/05/05 11:47:19;;;;;;;37.15;22.17;;;15.80;99.90;;;;;;5131102;27;20027;-70
2022/05/05 11:49:46;;;;;;;37.45;20.92;;;15.80;99.90;;;;;;5130168;27;21521;-72
2022/05/05 11:52:23;;;;;;;37.75;20.77;;;15.70;99.90;;;;;;5131160;27;20398;-70
2022/05/05 11:54:54;;;;;;;34.92;20.85;;;15.70;99.90;;;;;;5129632;27;20057;-71
2022/05/05 11:57:39;;;;;;;38.80;21.13;;;15.80;99.90;;;;;;5130758;27;20103;-71
2022/05/05 12:02:51;;;;;;;40.88;21.60;;;15.70;99.90;;;;;;5129850;27;20030;-69
2022/05/05 12:05:18;;;;;;;39.33;21.73;;;15.70;99.90;;;;;;5110042;28;20056;-71
2022/05/05 12:07:46;;;;;;;37.95;22.33;;;15.70;99.90;;;;;;5111094;28;20524;-70
2022/05/05 12:10:14;;;;;;;37.70;21.60;;;15.80;99.90;;;;;;5110199;28;20024;-71
2022/05/05 12:12:48;;;;;;;40.47;22.55;;;16.00;99.90;;;;;;5111181;28;20448;-70
2022/05/05 12:15:16;;;;;;;42.63;22.65;;;16.20;99.90;;;;;;5119291;27;20035;-70
2022/05/05 12:17:52;;;;;;;40.50;22.33;;;16.20;99.90;;;;;;5130843;27;20035;-70
2022/05/05 12:20:21;;;;;;;38.15;22.15;;;16.20;99.90;;;;;;5129485;27;20027;-71
2022/05/05 12:22:54;;;;;;;39.17;21.70;;;16.30;99.90;;;;;;5129820;27;20023;-71
2022/05/05 12:25:21;;;;;;;40.78;21.95;;;16.30;99.90;;;;;;5115869;27;20023;-71
2022/05/05 12:27:58;;;;;;;41.20;22.92;;;16.30;99.90;;;;;;5126041;27;20023;-72
2022/05/05 12:30:34;;;;;;;43.83;22.88;;;16.40;99.90;;;;;;5127626;27;20106;-70
2022/05/05 12:33:00;;;;;;;40.20;23.35;;;16.60;99.90;;;;;;5120500;27;20356;-69
2022/05/05 12:35:34;;;;;;;38.58;22.10;;;16.70;99.90;;;;;;5120097;27;20039;-71
2022/05/05 12:38:01;;;;;;;41.10;22.50;;;16.90;99.90;;;;;;5101046;28;20035;-71
2022/05/05 12:40:28;;;;;;;36.55;21.90;;;17.00;99.90;;;;;;5121974;27;20102;-71
2022/05/05 12:43:10;;;;;;;35.88;21.35;;;17.20;99.90;;;;;;5130078;27;20049;-71
2022/05/05 12:45:37;;;;;;;30.52;18.90;;;17.40;99.90;;;;;;5092125;28;20032;-71
2022/05/05 12:48:05;;;;;;;35.58;21.40;;;17.50;99.90;;;;;;5114325;27;20034;-70
2022/05/05 12:50:41;;;;;;;35.40;20.58;;;17.90;99.90;;;;;;5129257;27;20024;-71
2022/05/05 13:01:34;;;;;;;34.88;19.50;;;18.90;99.90;;;;;;5130925;27;19909;-72
2022/05/05 13:04:05;;;;;;;28.38;18.05;;;18.90;99.90;;;;;;5129329;27;20031;-73
2022/05/05 13:06:31;;;;;;;28.60;17.60;;;19.40;99.90;;;;;;5109927;27;20051;-72
2022/05/05 13:08:57;;;;;;;26.42;15.73;;;19.70;99.90;;;;;;5130682;27;20027;-71
2022/05/05 13:11:23;;;;;;;23.75;16.42;;;19.90;99.90;;;;;;5129902;27;20039;-71
2022/05/05 13:13:50;;;;;;;27.50;16.92;;;20.10;99.90;;;;;;5130791;28;20044;-72
2022/05/05 13:16:16;;;;;;;27.15;14.35;;;19.90;99.90;;;;;;5129706;28;20076;-72
2022/05/05 13:18:43;;;;;;;27.77;16.63;;;19.70;99.90;;;;;;5124867;28;20016;-72
2022/05/05 13:21:08;;;;;;;22.55;14.88;;;19.60;99.90;;;;;;5116272;28;20019;-70
2022/05/05 13:23:35;;;;;;;23.67;14.90;;;19.70;99.90;;;;;;5130339;28;20509;-72
2022/05/05 13:26:03;;;;;;;25.35;16.20;;;20.20;99.90;;;;;;5130429;28;20031;-72